Time;durP1;ratioP1;P1;durP2;ratioP2;P2;SDS_P1;SDS_P2;PMS_P1;PMS_P2;Temp;Humidity;BMP_temperature;BMP_pressure;BME280_temperature;BME280_humidity;BME280_pressure;Samples;Min_cycle;Max_cycle;Signal;HPM_P1;HPM_P2
2023/03/05 00:01:25;;;;;;;13.73;6.90;;;;;;;8.40;60.56;100995.94;5111081;28;20215;-67
2023/03/05 00:03:55;;;;;;;12.73;6.73;;;;;;;8.40;60.56;100983.56;5112482;27;20596;-68
2023/03/05 00:06:24;;;;;;;10.83;6.83;;;;;;;8.36;60.73;100984.75;5112481;28;20244;-67
2023/03/05 00:08:55;;;;;;;13.43;6.53;;;;;;;8.38;60.67;100988.13;5112489;27;20232;-67
2023/03/05 00:11:24;;;;;;;12.50;6.63;;;;;;;8.38;60.50;100980.22;5112538;28;20301;-67
2023/03/05 00:13:52;;;;;;;12.07;5.73;;;;;;;8.37;60.85;100985.59;5112147;28;20860;-68
2023/03/05 00:16:21;;;;;;;12.97;6.83;;;;;;;8.39;60.79;100986.34;5112254;28;20220;-67
2023/03/05 00:18:49;;;;;;;11.27;6.37;;;;;;;8.42;60.56;100986.09;5112223;28;20216;-68
2023/03/05 00:21:19;;;;;;;14.80;6.53;;;;;;;8.46;60.38;100988.38;5112299;28;20208;-67
2023/03/05 00:23:49;;;;;;;13.10;6.40;;;;;;;8.49;60.25;100992.56;5112530;27;20241;-68
2023/03/05 00:26:19;;;;;;;15.13;7.57;;;;;;;8.45;60.27;100991.97;5112475;28;20312;-68
2023/03/05 00:28:48;;;;;;;11.70;6.47;;;;;;;8.40;60.63;100983.56;5113621;27;20218;-67
2023/03/05 00:31:16;;;;;;;14.13;6.67;;;;;;;8.42;60.53;100994.88;5111821;28;20279;-67
2023/03/05 00:33:44;;;;;;;13.33;7.37;;;;;;;8.45;60.69;100986.69;5112459;28;20206;-67
2023/03/05 00:36:12;;;;;;;13.77;6.93;;;;;;;8.45;60.58;100981.41;5099806;28;20359;-69
2023/03/05 00:38:39;;;;;;;15.67;7.30;;;;;;;8.44;60.63;100985.03;5091217;28;21178;-67
2023/03/05 00:41:08;;;;;;;16.60;9.20;;;;;;;8.44;60.57;100979.75;5091045;28;20212;-67
2023/03/05 00:43:37;;;;;;;16.23;8.50;;;;;;;8.45;60.43;100972.63;5092083;28;20237;-67
2023/03/05 00:46:05;;;;;;;15.20;7.83;;;;;;;8.42;60.64;100970.25;5091501;28;20317;-68
2023/03/05 00:48:33;;;;;;;14.10;7.97;;;;;;;8.44;60.48;100970.97;5092208;28;20289;-68
2023/03/05 00:51:00;;;;;;;21.80;9.03;;;;;;;8.42;60.41;100970.25;5091607;28;20207;-69
2023/03/05 00:53:28;;;;;;;16.43;8.80;;;;;;;8.41;60.55;100969.41;5090295;28;20209;-68
2023/03/05 00:55:56;;;;;;;17.57;9.23;;;;;;;8.41;60.52;100968.56;5092106;28;20213;-68
2023/03/05 00:58:24;;;;;;;20.03;9.17;;;;;;;8.39;60.49;100959.91;5091582;28;20228;-68
2023/03/05 01:00:53;;;;;;;18.27;9.10;;;;;;;8.37;60.48;100962.66;5090706;28;20217;-68
2023/03/05 01:03:20;;;;;;;22.90;11.17;;;;;;;8.38;60.55;100956.41;5087426;28;20214;-66
2023/03/05 01:05:48;;;;;;;19.97;9.83;;;;;;;8.40;60.49;100954.50;5088056;28;20229;-68
2023/03/05 01:08:16;;;;;;;19.13;10.07;;;;;;;8.43;60.25;100959.56;5088970;28;20224;-66
2023/03/05 01:10:44;;;;;;;20.33;10.00;;;;;;;8.45;59.90;100960.25;5086114;28;20292;-68
2023/03/05 01:13:12;;;;;;;20.77;10.27;;;;;;;8.43;60.03;100946.34;5088856;28;20218;-68
2023/03/05 01:15:40;;;;;;;17.87;9.57;;;;;;;8.44;60.22;100953.31;5088056;28;20210;-69
2023/03/05 01:18:09;;;;;;;16.30;10.60;;;;;;;8.41;60.29;100945.63;5088715;28;20213;-67
2023/03/05 01:20:36;;;;;;;21.47;10.20;;;;;;;8.43;60.09;100942.84;5087413;28;20213;-67
2023/03/05 01:23:04;;;;;;;18.17;9.90;;;;;;;8.44;60.18;100937.47;5085309;28;21141;-68
2023/03/05 01:25:32;;;;;;;20.33;10.90;;;;;;;8.45;60.27;100939.09;5088073;28;20238;-69
2023/03/05 01:28:00;;;;;;;21.33;10.90;;;;;;;8.45;60.38;100939.09;5088138;28;20225;-68
2023/03/05 01:30:28;;;;;;;19.53;11.10;;;;;;;8.41;60.52;100932.41;5086572;28;20205;-67
2023/03/05 01:32:56;;;;;;;23.43;11.80;;;;;;;8.39;60.75;100934.31;5087859;28;20299;-67
2023/03/05 01:35:26;;;;;;;27.27;11.60;;;;;;;8.36;60.75;100929.28;5087484;28;20243;-67
2023/03/05 01:37:54;;;;;;;19.93;10.50;;;;;;;8.39;60.74;100922.91;5088158;28;20684;-67
2023/03/05 01:40:25;;;;;;;19.57;11.00;;;;;;;8.38;60.83;100927.34;5087012;28;20227;-67
2023/03/05 01:42:58;;;;;;;20.20;11.07;;;;;;;8.37;60.94;100924.81;5087509;28;20201;-67
2023/03/05 01:45:26;;;;;;;22.63;11.70;;;;;;;8.36;60.96;100921.34;5088340;28;20229;-68
2023/03/05 01:47:54;;;;;;;22.80;12.20;;;;;;;8.38;60.88;100916.78;5087803;28;20219;-66
2023/03/05 01:50:26;;;;;;;23.17;12.53;;;;;;;8.39;60.66;100923.75;5087434;28;20221;-67
2023/03/05 01:52:59;;;;;;;26.17;13.10;;;;;;;8.39;60.60;100929.03;5087255;28;20213;-68
2023/03/05 01:55:29;;;;;;;23.80;12.50;;;;;;;8.36;61.00;100921.34;5087638;28;20204;-67
2023/03/05 01:58:02;;;;;;;23.87;13.30;;;;;;;8.33;61.04;100924.25;5087247;28;20661;-67
2023/03/05 02:00:37;;;;;;;18.40;11.47;;;;;;;8.34;60.97;100915.38;5086127;28;20303;-67
2023/03/05 02:03:07;;;;;;;23.77;12.43;;;;;;;8.33;60.76;100920.78;5088634;28;20216;-67
2023/03/05 02:05:38;;;;;;;20.83;12.17;;;;;;;8.33;60.92;100913.69;5087308;28;20773;-67
2023/03/05 02:08:08;;;;;;;22.30;12.73;;;;;;;8.30;60.76;100904.16;5086990;28;20220;-68
2023/03/05 02:10:39;;;;;;;21.90;12.17;;;;;;;8.27;60.98;100906.19;5086913;28;20248;-68
2023/03/05 02:13:09;;;;;;;22.77;12.03;;;;;;;8.29;60.84;100902.47;5087312;28;20631;-67
2023/03/05 02:15:38;;;;;;;24.00;12.90;;;;;;;8.25;60.96;100902.84;5087765;28;20212;-68
2023/03/05 02:18:07;;;;;;;27.53;13.23;;;;;;;8.26;60.82;100902.75;5087752;28;20215;-69
2023/03/05 02:20:46;;;;;;;24.80;13.57;;;;;;;8.27;60.55;100904.41;5086034;28;20650;-68
2023/03/05 02:23:16;;;;;;;24.13;13.40;;;;;;;8.25;60.60;100906.34;5086606;28;20642;-67
2023/03/05 02:25:44;;;;;;;23.67;12.10;;;;;;;8.26;60.61;100896.63;5086345;28;20229;-68
2023/03/05 02:28:18;;;;;;;22.87;12.57;;;;;;;8.30;60.62;100903.31;5084886;28;20961;-67
2023/03/05 02:30:46;;;;;;;22.50;13.07;;;;;;;8.28;60.80;100899.94;5086119;28;20205;-67
2023/03/05 02:33:14;;;;;;;22.70;13.67;;;;;;;8.27;60.90;100898.25;5087136;28;20214;-67
2023/03/05 02:35:43;;;;;;;23.37;12.73;;;;;;;8.23;60.89;100897.69;5094650;28;20240;-68
2023/03/05 02:38:11;;;;;;;24.27;13.37;;;;;;;8.26;60.90;100892.19;5107719;28;20216;-67
2023/03/05 02:40:40;;;;;;;24.67;13.17;;;;;;;8.26;60.94;100889.53;5106470;28;20242;-67
2023/03/05 02:43:09;;;;;;;23.77;13.40;;;;;;;8.22;61.29;100881.94;5107309;28;20212;-67
2023/03/05 02:45:37;;;;;;;22.07;12.97;;;;;;;8.23;61.12;100891.56;5107699;28;20230;-67
2023/03/05 02:48:05;;;;;;;28.03;14.13;;;;;;;8.18;61.51;100883.19;5106402;28;20216;-68
2023/03/05 02:50:34;;;;;;;25.03;13.40;;;;;;;8.18;61.33;100884.00;5106649;28;20726;-69
2023/03/05 02:53:02;;;;;;;24.47;13.07;;;;;;;8.21;61.03;100885.56;5106850;28;20907;-68
2023/03/05 02:55:29;;;;;;;26.80;12.77;;;;;;;8.21;60.87;100883.75;5106524;28;20204;-69
2023/03/05 02:57:59;;;;;;;25.53;13.23;;;;;;;8.23;60.77;100881.00;5106057;28;20221;-70
2023/03/05 03:00:26;;;;;;;21.83;12.40;;;;;;;8.22;60.43;100874.03;5106054;28;20287;-67
2023/03/05 03:02:54;;;;;;;24.10;13.17;;;;;;;8.25;60.33;100873.78;5105820;28;20653;-67
2023/03/05 03:05:22;;;;;;;28.83;12.93;;;;;;;8.30;60.09;100866.31;5106190;28;20247;-67
2023/03/05 03:07:51;;;;;;;23.20;13.83;;;;;;;8.38;59.73;100856.00;5108447;27;20216;-68
2023/03/05 03:10:18;;;;;;;28.03;13.53;;;;;;;8.36;59.76;100855.28;5105704;28;20208;-66
2023/03/05 03:12:46;;;;;;;28.53;13.77;;;;;;;8.37;59.99;100850.84;5104975;27;20680;-68
2023/03/05 03:15:17;;;;;;;26.20;13.80;;;;;;;8.35;60.03;100852.78;5106599;28;20547;-67
2023/03/05 03:17:45;;;;;;;25.07;13.17;;;;;;;8.30;60.27;100843.38;5106933;28;20632;-67
2023/03/05 03:20:15;;;;;;;26.53;13.63;;;;;;;8.35;60.12;100847.50;5106104;28;20276;-68
2023/03/05 03:22:44;;;;;;;27.03;14.40;;;;;;;8.32;60.39;100842.47;5103876;28;20213;-69
2023/03/05 03:25:14;;;;;;;25.57;12.93;;;;;;;8.33;60.34;100846.78;5105798;27;20335;-68
2023/03/05 03:27:42;;;;;;;26.43;13.37;;;;;;;8.30;60.56;100840.75;5106191;28;20281;-68
2023/03/05 03:30:11;;;;;;;24.27;13.60;;;;;;;8.31;60.61;100833.69;5105535;28;20214;-67
2023/03/05 03:32:40;;;;;;;22.53;12.87;;;;;;;8.29;60.90;100828.50;5106565;28;20227;-68
2023/03/05 03:35:09;;;;;;;24.87;13.90;;;;;;;8.30;60.63;100831.97;5105529;28;20240;-67
2023/03/05 03:37:37;;;;;;;24.67;12.77;;;;;;;8.29;60.46;100827.66;5106537;28;20282;-68
2023/03/05 03:40:06;;;;;;;28.57;13.37;;;;;;;8.24;60.76;100829.84;5105703;28;20212;-67
2023/03/05 03:42:34;;;;;;;25.30;13.50;;;;;;;8.23;60.61;100818.44;5105126;28;20274;-67
2023/03/05 03:45:02;;;;;;;25.17;13.70;;;;;;;8.20;60.83;100825.75;5104392;28;20232;-67
2023/03/05 03:47:30;;;;;;;25.23;13.50;;;;;;;8.17;60.63;100823.38;5105767;28;20698;-67
2023/03/05 03:49:59;;;;;;;22.77;12.57;;;;;;;8.16;60.64;100821.69;5105910;28;20239;-67
2023/03/05 03:52:27;;;;;;;25.57;13.47;;;;;;;8.14;60.53;100826.25;5105527;28;20234;-67
2023/03/05 03:55:00;;;;;;;30.17;14.50;;;;;;;8.12;60.65;100820.25;5106994;28;20750;-67
2023/03/05 03:57:29;;;;;;;24.03;13.67;;;;;;;8.14;60.21;100821.81;5105801;28;21196;-67
2023/03/05 03:59:57;;;;;;;27.10;13.73;;;;;;;8.12;60.37;100814.97;5105549;28;20212;-68
2023/03/05 04:02:25;;;;;;;24.23;13.77;;;;;;;8.10;60.54;100816.88;5105964;28;20215;-66
2023/03/05 04:04:53;;;;;;;25.53;14.13;;;;;;;8.13;60.56;100817.50;5106117;28;20560;-67
2023/03/05 04:07:22;;;;;;;27.67;13.83;;;;;;;8.15;60.36;100817.38;5106132;28;20209;-67
2023/03/05 04:09:50;;;;;;;29.93;13.80;;;;;;;8.14;60.35;100813.06;5106026;28;20216;-68
2023/03/05 04:12:17;;;;;;;23.23;13.90;;;;;;;8.15;60.34;100807.66;5105050;28;20303;-67
2023/03/05 04:14:45;;;;;;;26.13;13.40;;;;;;;8.12;60.46;100813.16;5106284;28;20208;-68
2023/03/05 04:17:14;;;;;;;26.43;15.03;;;;;;;8.13;60.46;100812.22;5105972;28;20695;-68
2023/03/05 04:19:43;;;;;;;22.73;12.83;;;;;;;8.09;60.58;100804.66;5105072;28;20611;-68
2023/03/05 04:22:12;;;;;;;28.77;14.47;;;;;;;8.11;60.32;100810.66;5106363;28;20979;-67
2023/03/05 04:24:41;;;;;;;28.33;13.37;;;;;;;8.07;60.54;100803.94;5106299;28;20209;-67
2023/03/05 04:27:09;;;;;;;25.27;13.43;;;;;;;8.04;60.57;100796.25;5105149;28;20227;-67
2023/03/05 04:29:37;;;;;;;24.77;12.43;;;;;;;8.05;60.35;100797.94;5105391;28;20208;-68
2023/03/05 04:32:05;;;;;;;24.73;12.97;;;;;;;8.04;60.40;100804.19;5106201;28;20224;-68
2023/03/05 04:34:34;;;;;;;26.47;13.13;;;;;;;8.04;60.37;100802.38;5105679;28;20213;-68
2023/03/05 04:37:01;;;;;;;21.57;12.73;;;;;;;8.01;60.24;100802.63;5106203;28;20239;-68
2023/03/05 04:39:29;;;;;;;30.37;13.33;;;;;;;8.02;60.44;100808.75;5107814;28;20215;-68
2023/03/05 04:41:58;;;;;;;26.33;12.60;;;;;;;8.01;60.35;100801.78;5109130;28;20207;-68
2023/03/05 04:44:26;;;;;;;26.27;12.70;;;;;;;7.93;60.38;100808.53;5109302;28;20203;-67
2023/03/05 04:46:54;;;;;;;26.87;12.93;;;;;;;7.94;60.56;100815.50;5108325;28;20745;-68
2023/03/05 04:49:21;;;;;;;19.93;13.10;;;;;;;7.95;60.39;100813.69;5108528;28;20208;-69
2023/03/05 04:51:49;;;;;;;20.13;11.00;;;;;;;7.97;60.06;100800.38;5110101;27;20232;-68
2023/03/05 04:54:17;;;;;;;25.47;12.23;;;;;;;7.93;59.99;100797.97;5109068;28;20242;-68
2023/03/05 04:56:45;;;;;;;26.43;13.07;;;;;;;7.96;59.87;100798.69;5109798;28;20208;-67
2023/03/05 04:59:14;;;;;;;21.23;11.10;;;;;;;7.93;59.67;100797.97;5108093;28;20273;-70
2023/03/05 05:01:41;;;;;;;23.20;11.17;;;;;;;7.91;59.70;100792.00;5107930;28;20212;-66
2023/03/05 05:04:09;;;;;;;22.20;11.97;;;;;;;7.92;59.54;100793.63;5109427;28;20684;-67
2023/03/05 05:06:37;;;;;;;24.37;11.60;;;;;;;7.96;59.41;100793.41;5108749;28;20232;-68
2023/03/05 05:09:05;;;;;;;25.23;12.17;;;;;;;7.95;59.43;100792.56;5108429;28;20222;-68
2023/03/05 05:11:32;;;;;;;22.93;11.67;;;;;;;7.96;59.54;100793.41;5108009;28;20239;-68
2023/03/05 05:14:00;;;;;;;26.23;12.67;;;;;;;7.96;59.87;100790.75;5108362;28;20215;-67
2023/03/05 05:16:29;;;;;;;23.80;11.63;;;;;;;7.93;60.40;100797.97;5109207;28;20240;-69
2023/03/05 05:18:57;;;;;;;22.00;11.60;;;;;;;7.94;60.78;100791.72;5108912;27;20213;-68
2023/03/05 05:21:26;;;;;;;25.90;12.03;;;;;;;7.92;61.00;100796.28;5108707;27;20630;-69
2023/03/05 05:23:54;;;;;;;26.40;13.10;;;;;;;7.90;60.93;100786.81;5109282;28;20234;-68
2023/03/05 05:26:22;;;;;;;20.93;11.63;;;;;;;7.90;61.15;100792.94;5107116;28;20850;-68
2023/03/05 05:28:49;;;;;;;20.97;10.97;;;;;;;7.89;61.58;100793.91;5109011;27;20236;-68
2023/03/05 05:31:18;;;;;;;22.97;12.13;;;;;;;7.92;61.60;100791.00;5107534;28;20215;-68
2023/03/05 05:33:47;;;;;;;27.00;12.53;;;;;;;7.92;61.39;100788.34;5107847;28;20207;-66
2023/03/05 05:36:18;;;;;;;23.57;12.23;;;;;;;7.92;61.53;100793.63;5107550;28;20327;-67
2023/03/05 05:38:46;;;;;;;25.20;12.30;;;;;;;7.94;61.62;100791.72;5107251;28;20212;-68
2023/03/05 05:41:17;;;;;;;23.00;12.70;;;;;;;7.92;61.68;100785.72;5108104;28;20235;-68
2023/03/05 05:43:45;;;;;;;23.70;12.17;;;;;;;7.90;61.79;100784.19;5108553;28;20209;-68
2023/03/05 05:46:15;;;;;;;24.43;12.20;;;;;;;7.88;61.74;100786.09;5108147;28;20239;-67
2023/03/05 05:48:44;;;;;;;22.60;12.10;;;;;;;7.86;61.61;100783.59;5108201;28;20754;-69
2023/03/05 05:51:16;;;;;;;24.60;12.70;;;;;;;7.85;61.76;100781.06;5107670;28;20221;-69
2023/03/05 05:53:44;;;;;;;26.93;13.07;;;;;;;7.87;61.90;100777.34;5108199;28;20918;-68
2023/03/05 05:56:13;;;;;;;25.27;13.17;;;;;;;7.86;62.05;100769.53;5108405;28;20245;-67
2023/03/05 05:58:42;;;;;;;25.03;12.03;;;;;;;7.84;62.22;100774.09;5107647;28;20213;-68
2023/03/05 06:01:15;;;;;;;28.13;12.40;;;;;;;7.81;62.23;100771.72;5107024;28;20665;-68
2023/03/05 06:03:43;;;;;;;22.10;11.43;;;;;;;7.80;61.94;100762.97;5107341;28;20830;-67
2023/03/05 06:06:14;;;;;;;25.23;12.53;;;;;;;7.83;61.72;100764.50;5107412;28;20710;-67
2023/03/05 06:08:41;;;;;;;22.47;10.93;;;;;;;7.85;61.86;100766.06;5107284;27;20203;-66
2023/03/05 06:11:09;;;;;;;24.93;11.67;;;;;;;7.84;61.79;100767.00;5107690;28;20205;-68
2023/03/05 06:13:37;;;;;;;23.10;11.00;;;;;;;7.85;61.73;100770.50;5107449;28;20215;-68
2023/03/05 06:16:07;;;;;;;21.47;10.73;;;;;;;7.84;61.52;100772.28;5108363;28;20210;-68
2023/03/05 06:18:35;;;;;;;20.90;11.40;;;;;;;7.85;61.38;100771.34;5106355;28;20208;-67
2023/03/05 06:21:05;;;;;;;21.27;10.00;;;;;;;7.83;61.15;100773.25;5107201;28;20679;-67
2023/03/05 06:23:34;;;;;;;19.53;10.80;;;;;;;7.82;60.99;100771.59;5106618;28;20211;-68
2023/03/05 06:26:05;;;;;;;19.67;9.70;;;;;;;7.86;60.91;100766.91;5107416;28;20208;-68
2023/03/05 06:28:33;;;;;;;22.50;10.27;;;;;;;7.85;61.01;100776.63;5107092;28;20212;-68
2023/03/05 06:31:02;;;;;;;16.70;9.50;;;;;;;7.82;60.59;100766.31;5105706;28;20204;-69
2023/03/05 06:33:31;;;;;;;19.43;9.10;;;;;;;7.80;60.37;100770.88;5107668;28;20196;-67
2023/03/05 06:35:59;;;;;;;15.97;8.90;;;;;;;7.82;60.39;100771.59;5106676;28;20686;-68
2023/03/05 06:38:27;;;;;;;17.87;8.70;;;;;;;7.85;60.24;100781.06;5107377;28;20207;-67
2023/03/05 06:41:00;;;;;;;19.40;9.07;;;;;;;7.85;59.87;100776.63;5107298;28;20582;-67
2023/03/05 06:43:27;;;;;;;21.47;8.83;;;;;;;7.89;59.80;100771.94;5106679;28;20212;-68
2023/03/05 06:46:02;;;;;;;20.17;8.03;;;;;;;7.88;59.64;100775.53;5107363;28;20905;-68
2023/03/05 06:48:29;;;;;;;18.13;8.90;;;;;;;7.83;59.91;100767.97;5106455;27;20237;-69
2023/03/05 06:50:57;;;;;;;22.13;8.47;;;;;;;7.83;59.85;100777.69;5106530;28;20212;-68
2023/03/05 06:53:26;;;;;;;20.73;8.20;;;;;;;7.81;59.58;100791.03;5106890;28;20217;-66
2023/03/05 06:55:53;;;;;;;19.50;8.37;;;;;;;7.81;59.52;100779.63;5107204;28;20861;-68
2023/03/05 06:58:23;;;;;;;15.03;7.47;;;;;;;7.83;59.35;100778.53;5106907;28;21014;-68
2023/03/05 07:00:51;;;;;;;14.03;6.97;;;;;;;7.84;59.41;100785.50;5105086;28;20202;-68
2023/03/05 07:03:19;;;;;;;16.73;7.03;;;;;;;7.84;59.47;100782.00;5105333;28;20208;-69
2023/03/05 07:05:49;;;;;;;14.60;7.60;;;;;;;7.88;59.42;100776.38;5106689;28;20227;-68
2023/03/05 07:08:17;;;;;;;18.07;8.07;;;;;;;7.90;59.21;100779.75;5107139;28;20223;-68
2023/03/05 07:10:45;;;;;;;13.77;7.43;;;;;;;7.95;58.99;100771.44;5106371;28;20562;-68
2023/03/05 07:13:13;;;;;;;13.10;6.77;;;;;;;7.97;58.97;100772.16;5106699;27;20203;-69
2023/03/05 07:15:43;;;;;;;18.90;8.03;;;;;;;7.97;58.57;100768.69;5106478;28;20204;-68
2023/03/05 07:18:11;;;;;;;15.37;7.13;;;;;;;7.97;58.92;100761.59;5106296;28;20282;-67
2023/03/05 07:20:39;;;;;;;17.20;8.20;;;;;;;8.02;58.89;100767.34;5105875;28;20204;-67
2023/03/05 07:23:06;;;;;;;16.07;7.53;;;;;;;8.12;58.54;100767.44;5106924;28;20238;-67
2023/03/05 07:25:36;;;;;;;17.77;8.23;;;;;;;8.18;58.25;100772.22;5106778;28;20211;-67
2023/03/05 07:28:05;;;;;;;19.20;8.27;;;;;;;8.21;57.92;100766.69;5105218;28;20743;-67
2023/03/05 07:30:33;;;;;;;14.47;7.27;;;;;;;8.22;57.88;100771.84;5105648;28;20237;-66
2023/03/05 07:33:02;;;;;;;19.63;8.30;;;;;;;8.27;57.75;100763.53;5106352;28;20265;-68
2023/03/05 07:35:30;;;;;;;15.97;8.17;;;;;;;8.29;57.63;100753.66;5106436;28;20246;-67
2023/03/05 07:37:57;;;;;;;16.87;7.27;;;;;;;8.32;57.67;100757.91;5106527;28;20228;-67
2023/03/05 07:40:25;;;;;;;18.50;8.60;;;;;;;8.37;57.43;100756.56;5105766;28;20205;-68
2023/03/05 07:42:53;;;;;;;17.13;8.57;;;;;;;8.32;57.60;100758.75;5107145;28;20649;-67
2023/03/05 07:45:21;;;;;;;15.67;7.47;;;;;;;8.34;57.21;100756.81;5107339;28;20224;-67
2023/03/05 07:47:48;;;;;;;19.77;7.40;;;;;;;8.38;57.07;100758.22;5105880;28;20244;-67
2023/03/05 07:50:20;;;;;;;15.60;6.97;;;;;;;8.42;56.85;100754.38;5105154;28;20868;-67
2023/03/05 07:52:48;;;;;;;16.60;7.90;;;;;;;8.49;56.63;100766.13;5105516;28;20212;-68
2023/03/05 07:55:15;;;;;;;16.13;7.73;;;;;;;8.52;56.64;100763.22;5106228;28;20216;-68
2023/03/05 07:57:43;;;;;;;20.50;7.93;;;;;;;8.57;56.38;100768.13;5105915;28;20580;-68
2023/03/05 08:00:12;;;;;;;16.97;8.00;;;;;;;8.62;55.98;100765.91;5106600;28;20306;-69
2023/03/05 08:02:40;;;;;;;17.63;7.97;;;;;;;8.62;55.76;100764.09;5105344;28;20582;-68
2023/03/05 08:05:08;;;;;;;21.70;7.87;;;;;;;8.68;55.74;100760.97;5105774;28;20305;-68
2023/03/05 08:07:37;;;;;;;20.43;7.83;;;;;;;8.68;55.24;100755.69;5106113;28;20232;-68
2023/03/05 08:10:06;;;;;;;16.37;8.23;;;;;;;8.74;55.04;100758.75;5105535;28;20223;-68
2023/03/05 08:12:34;;;;;;;19.90;8.00;;;;;;;8.78;55.15;100754.91;5109280;28;20322;-68
2023/03/05 08:15:01;;;;;;;14.00;7.33;;;;;;;8.82;54.99;100756.31;5109385;28;20209;-68
2023/03/05 08:17:29;;;;;;;15.70;7.03;;;;;;;8.87;54.61;100760.25;5110296;28;20213;-68
2023/03/05 08:19:59;;;;;;;16.13;7.70;;;;;;;8.90;54.73;100754.69;5109807;28;20303;-68
2023/03/05 08:22:26;;;;;;;16.57;7.03;;;;;;;8.93;54.35;100753.59;5109843;28;20733;-68
2023/03/05 08:24:55;;;;;;;14.70;6.83;;;;;;;8.97;53.75;100744.44;5109521;28;20274;-68
2023/03/05 08:27:23;;;;;;;12.73;6.13;;;;;;;8.98;53.54;100751.38;5109800;27;20209;-68
2023/03/05 08:29:51;;;;;;;14.63;6.60;;;;;;;9.03;53.50;100743.91;5109214;28;20213;-68
2023/03/05 08:32:19;;;;;;;16.83;6.57;;;;;;;9.04;52.77;100748.25;5109901;28;20217;-68
2023/03/05 08:34:47;;;;;;;12.60;5.73;;;;;;;9.07;52.23;100746.16;5108434;28;20214;-68
2023/03/05 08:37:14;;;;;;;11.00;5.10;;;;;;;9.08;51.72;100741.69;5089867;28;20210;-68
2023/03/05 08:39:42;;;;;;;12.10;4.97;;;;;;;9.11;51.62;100738.81;5088570;28;20233;-69
2023/03/05 08:42:11;;;;;;;10.93;4.93;;;;;;;9.19;51.30;100749.56;5090328;28;20209;-69
2023/03/05 08:44:39;;;;;;;12.07;4.50;;;;;;;9.27;51.18;100743.59;5088997;28;20214;-67
2023/03/05 08:47:07;;;;;;;12.93;4.77;;;;;;;9.36;51.17;100742.81;5089198;28;20697;-69
2023/03/05 08:49:34;;;;;;;11.77;5.10;;;;;;;9.44;50.78;100738.50;5088808;28;20332;-68
2023/03/05 08:52:02;;;;;;;10.87;4.87;;;;;;;9.47;50.68;100742.72;5088877;28;20213;-70
2023/03/05 08:54:30;;;;;;;17.30;5.33;;;;;;;9.48;50.16;100748.84;5088173;28;20203;-69
2023/03/05 08:56:57;;;;;;;12.63;5.50;;;;;;;9.49;50.62;100742.59;5088967;28;20325;-68
2023/03/05 08:59:26;;;;;;;13.77;5.90;;;;;;;9.44;50.69;100735.88;5088257;28;20203;-68
2023/03/05 09:01:54;;;;;;;12.83;4.67;;;;;;;9.43;50.96;100736.00;5088112;28;20207;-68
2023/03/05 09:04:22;;;;;;;10.67;4.73;;;;;;;9.51;50.90;100732.66;5088367;28;20297;-69
2023/03/05 09:06:50;;;;;;;9.53;4.57;;;;;;;9.59;50.95;100730.19;5087805;28;20261;-68
2023/03/05 09:09:20;;;;;;;9.73;3.70;;;;;;;9.62;50.69;100725.47;5089031;28;20242;-68
2023/03/05 09:11:47;;;;;;;9.90;4.47;;;;;;;9.63;50.22;100726.31;5088599;28;20302;-69
2023/03/05 09:14:15;;;;;;;12.87;4.77;;;;;;;9.62;50.16;100724.63;5088000;28;20651;-70
2023/03/05 09:16:44;;;;;;;11.60;4.33;;;;;;;9.54;50.15;100719.19;5088712;28;20688;-69
2023/03/05 09:19:13;;;;;;;13.13;5.43;;;;;;;9.47;50.07;100720.69;5087999;28;20363;-68
2023/03/05 09:21:41;;;;;;;14.10;5.43;;;;;;;9.40;50.31;100725.69;5088021;28;20556;-69
2023/03/05 09:24:10;;;;;;;7.80;4.10;;;;;;;9.31;50.12;100716.75;5086558;28;20225;-68
2023/03/05 09:26:39;;;;;;;8.47;4.07;;;;;;;9.25;49.96;100717.25;5088315;28;20612;-67
2023/03/05 09:29:07;;;;;;;9.70;4.33;;;;;;;9.18;50.29;100710.84;5087481;28;20230;-69
2023/03/05 09:31:36;;;;;;;8.33;4.43;;;;;;;9.20;50.22;100703.63;5087418;28;20199;-69
2023/03/05 09:34:07;;;;;;;10.50;4.93;;;;;;;9.18;49.58;100702.91;5088052;28;20584;-70
2023/03/05 09:36:34;;;;;;;11.03;5.17;;;;;;;9.06;48.80;100696.03;5094031;28;20706;-68
2023/03/05 09:39:05;;;;;;;12.33;5.43;;;;;;;8.99;48.96;100703.66;5110076;27;20214;-68
2023/03/05 09:41:50;;;;;;;9.50;4.30;;;;;;;9.06;48.82;100709.25;5108417;27;20225;-67
2023/03/05 09:44:30;;;;;;;10.93;4.63;;;;;;;9.02;48.85;100699.91;5108308;28;20241;-69
2023/03/05 09:47:13;;;;;;;10.40;4.50;;;;;;;9.07;49.05;100698.53;5107819;28;20241;-69
2023/03/05 09:49:52;;;;;;;11.90;4.43;;;;;;;9.15;48.68;100697.88;5107130;28;20225;-67
2023/03/05 09:52:23;;;;;;;11.77;4.70;;;;;;;9.26;48.72;100699.59;5107850;28;20213;-68
2023/03/05 09:54:55;;;;;;;11.10;4.80;;;;;;;9.26;48.13;100692.47;5107283;28;20618;-67
2023/03/05 09:57:28;;;;;;;12.07;4.53;;;;;;;9.32;47.99;100684.00;5107004;28;20492;-68
2023/03/05 09:59:59;;;;;;;9.83;4.50;;;;;;;9.41;47.79;100685.84;5106242;28;20209;-69
2023/03/05 10:02:31;;;;;;;11.00;4.33;;;;;;;9.51;47.47;100685.03;5108374;28;20203;-71
2023/03/05 10:05:12;;;;;;;10.77;3.77;;;;;;;9.55;47.03;100681.16;5105880;27;20700;-71
2023/03/05 10:07:43;;;;;;;8.63;3.37;;;;;;;9.54;46.65;100674.16;5106025;28;20206;-72
2023/03/05 10:10:15;;;;;;;8.43;3.37;;;;;;;9.57;45.56;100673.91;5105153;28;20736;-72
2023/03/05 10:12:45;;;;;;;9.80;3.97;;;;;;;9.50;46.30;100676.25;5107868;28;20227;-73
2023/03/05 10:15:15;;;;;;;11.60;4.27;;;;;;;9.49;47.16;100671.09;5106981;28;20240;-71
2023/03/05 10:18:01;;;;;;;9.10;4.40;;;;;;;9.49;46.79;100661.34;5106245;28;20248;-72
2023/03/05 10:20:53;;;;;;;6.77;3.00;;;;;;;9.48;45.65;100658.84;5105271;28;20301;-73
2023/03/05 10:23:28;;;;;;;7.10;3.60;;;;;;;9.54;45.35;100663.59;5094435;28;21097;-72
2023/03/05 10:26:08;;;;;;;7.30;3.20;;;;;;;9.58;44.84;100662.34;5106165;28;20569;-72
2023/03/05 10:28:48;;;;;;;7.80;3.43;;;;;;;9.61;44.46;100662.06;5105740;28;20221;-73
2023/03/05 10:31:40;;;;;;;8.90;3.30;;;;;;;9.62;44.03;100650.50;5104405;28;20225;-72
2023/03/05 10:34:33;;;;;;;8.03;2.70;;;;;;;9.69;44.08;100648.97;5103637;28;20220;-71
2023/03/05 10:37:27;;;;;;;7.10;3.40;;;;;;;9.76;44.63;100647.47;5107198;28;20233;-72
2023/03/05 10:40:08;;;;;;;8.53;3.57;;;;;;;9.74;44.76;100642.28;5107315;28;20662;-72
2023/03/05 10:42:43;;;;;;;8.30;3.77;;;;;;;9.75;44.38;100641.31;5109089;27;20211;-73
2023/03/05 10:45:15;;;;;;;9.50;3.57;;;;;;;9.64;43.34;100633.50;5102892;28;20229;-71
2023/03/05 10:47:48;;;;;;;8.27;3.70;;;;;;;9.71;44.35;100633.78;5104785;28;20206;-73
2023/03/05 10:50:19;;;;;;;7.67;3.37;;;;;;;9.77;44.39;100627.91;5104137;28;20225;-73
2023/03/05 10:52:56;;;;;;;7.33;3.10;;;;;;;9.79;43.07;100631.28;5104146;28;20232;-72
2023/03/05 10:55:24;;;;;;;8.13;3.20;;;;;;;9.79;43.30;100632.13;5105756;28;20712;-71
2023/03/05 10:57:52;;;;;;;9.03;3.67;;;;;;;9.91;43.96;100631.97;5106188;28;20210;-73
2023/03/05 11:00:22;;;;;;;7.27;2.80;;;;;;;9.98;43.97;100620.69;5103466;27;20583;-73
2023/03/05 11:02:57;;;;;;;6.73;2.80;;;;;;;10.08;44.58;100623.31;5105429;28;20202;-73
2023/03/05 11:05:47;;;;;;;7.27;2.83;;;;;;;10.14;43.79;100620.94;5103502;28;20312;-71
2023/03/05 11:08:29;;;;;;;7.37;2.67;;;;;;;10.18;43.24;100613.59;5099635;28;20230;-72
2023/03/05 11:11:13;;;;;;;8.97;3.57;;;;;;;10.20;43.51;100610.78;5103158;28;20235;-72
2023/03/05 11:13:52;;;;;;;4.50;2.20;;;;;;;10.15;43.12;100611.19;5105185;28;20612;-73
2023/03/05 11:16:22;;;;;;;5.03;2.10;;;;;;;10.04;42.64;100609.50;5104346;28;20218;-73
2023/03/05 11:18:50;;;;;;;5.50;2.20;;;;;;;10.00;43.02;100607.28;5103960;28;20600;-72
2023/03/05 11:21:22;;;;;;;4.50;2.17;;;;;;;9.97;43.03;100604.91;5103887;28;20208;-72
2023/03/05 11:24:13;;;;;;;6.80;2.57;;;;;;;9.89;43.22;100597.69;5104442;28;20629;-72
2023/03/05 11:26:49;;;;;;;7.53;2.77;;;;;;;9.85;43.05;100609.50;5102937;28;20264;-72
2023/03/05 11:29:21;;;;;;;8.93;2.50;;;;;;;9.83;43.42;100600.91;5104378;28;20241;-73
2023/03/05 11:31:49;;;;;;;5.30;2.57;;;;;;;9.78;43.62;100598.66;5106218;28;20205;-72
2023/03/05 11:34:38;;;;;;;5.70;2.20;;;;;;;9.82;43.29;100594.75;5104409;28;20206;-72